createdAt,value
2023-01-30T00:00:36.902Z,26.40
2023-01-30T00:03:29.485Z,27.40
2023-01-30T00:06:22.353Z,27.70
2023-01-30T00:09:15.841Z,27.70
2023-01-30T00:12:09.115Z,24.60
2023-01-30T00:15:01.241Z,21.40
2023-01-30T00:17:53.359Z,20.40
2023-01-30T00:20:45.532Z,20.10
2023-01-30T00:23:38.586Z,17.80
2023-01-30T00:26:30.764Z,17.70
2023-01-30T00:29:22.845Z,22.20
2023-01-30T00:32:14.899Z,21.20
2023-01-30T00:35:08.095Z,28.30
2023-01-30T00:38:01.813Z,27.40
2023-01-30T00:40:53.937Z,19.40
2023-01-30T00:44:03.643Z,20.50
2023-01-30T00:47:08.968Z,22.40
2023-01-30T00:49:44.604Z,23.40
2023-01-30T00:52:36.821Z,19.60
2023-01-30T00:55:28.953Z,22.70
2023-01-30T00:58:21.595Z,22.00
2023-01-30T01:01:13.825Z,21.40
2023-01-30T01:04:07.456Z,21.30
2023-01-30T01:06:59.499Z,23.90
2023-01-30T01:09:51.532Z,20.90
2023-01-30T01:12:44.646Z,24.60
2023-01-30T01:15:37.204Z,20.00
2023-01-30T01:18:29.561Z,18.60
2023-01-30T01:21:22.537Z,17.60
2023-01-30T01:24:16.494Z,20.00
2023-01-30T01:26:59.495Z,19.40
2023-01-30T01:29:51.435Z,15.50
2023-01-30T01:32:43.511Z,18.20
2023-01-30T01:35:35.655Z,17.80
2023-01-30T01:38:27.813Z,18.00
2023-01-30T01:41:20.747Z,13.80
2023-01-30T01:44:15.202Z,16.80
2023-01-30T01:46:56.157Z,11.40
2023-01-30T01:49:48.307Z,13.60
2023-01-30T01:52:41.027Z,15.60
2023-01-30T01:55:35.245Z,14.20
2023-01-30T01:58:30.215Z,18.40
2023-01-30T02:01:22.421Z,15.20
2023-01-30T02:04:35.416Z,16.20
2023-01-30T02:07:30.609Z,16.20
2023-01-30T02:10:26.387Z,13.50
2023-01-30T02:13:18.687Z,13.10
2023-01-30T02:16:11.058Z,16.90
2023-01-30T02:19:03.245Z,16.10
2023-01-30T02:22:27.795Z,14.90
2023-01-30T02:25:50.465Z,13.50
2023-01-30T02:29:36.172Z,15.60
2023-01-30T02:32:36.643Z,15.70
2023-01-30T02:35:33.767Z,14.80
2023-01-30T02:38:39.676Z,15.60
2023-01-30T02:41:38.028Z,15.50
2023-01-30T02:44:35.729Z,13.40
2023-01-30T02:47:34.792Z,14.00
2023-01-30T02:50:30.374Z,13.20
2023-01-30T02:53:22.810Z,14.60
2023-01-30T02:56:14.920Z,14.70
2023-01-30T02:59:08.405Z,14.40
2023-01-30T03:02:05.804Z,15.50
2023-01-30T03:05:20.325Z,10.80
2023-01-30T03:08:24.115Z,14.60
2023-01-30T03:11:14.148Z,10.60
2023-01-30T03:13:57.079Z,11.70
2023-01-30T03:16:52.809Z,9.60
2023-01-30T03:19:45.731Z,7.90
2023-01-30T03:22:37.906Z,11.30
2023-01-30T03:25:30.338Z,9.60
2023-01-30T03:28:23.280Z,12.60
2023-01-30T03:31:15.932Z,13.00
2023-01-30T03:34:08.071Z,9.90
2023-01-30T03:37:00.277Z,14.50
2023-01-30T03:39:52.403Z,11.20
2023-01-30T03:42:44.725Z,10.60
2023-01-30T03:45:37.432Z,12.50
2023-01-30T03:48:14.748Z,13.30
2023-01-30T03:51:07.566Z,11.90
2023-01-30T03:53:59.744Z,11.80
2023-01-30T03:56:51.846Z,12.90
2023-01-30T03:59:44.100Z,11.90
2023-01-30T04:02:36.255Z,10.30
2023-01-30T04:05:28.542Z,10.20
2023-01-30T04:08:20.686Z,10.90
2023-01-30T04:11:12.790Z,13.30
2023-01-30T04:14:04.961Z,10.60
2023-01-30T04:16:57.020Z,11.80
2023-01-30T04:19:49.206Z,11.70
2023-01-30T04:22:41.368Z,10.20
2023-01-30T04:25:33.483Z,10.70
2023-01-30T04:28:25.973Z,10.00
2023-01-30T04:31:18.198Z,12.20
2023-01-30T04:34:10.288Z,11.70
2023-01-30T04:36:44.823Z,11.30
2023-01-30T04:39:36.897Z,14.10
2023-01-30T04:42:29.059Z,12.20
2023-01-30T04:45:21.211Z,14.70
2023-01-30T04:48:13.693Z,9.80
2023-01-30T04:51:06.199Z,14.20
2023-01-30T04:53:58.273Z,13.80
2023-01-30T04:56:33.195Z,11.40
2023-01-30T04:59:25.213Z,13.20
2023-01-30T05:02:17.400Z,15.20
2023-01-30T05:05:10.689Z,11.40
2023-01-30T05:08:02.854Z,11.30
2023-01-30T05:10:54.923Z,8.10
2023-01-30T05:13:47.855Z,8.20
2023-01-30T05:16:40.000Z,13.20
2023-01-30T05:19:32.023Z,12.80
2023-01-30T05:22:24.123Z,13.30
2023-01-30T05:25:16.838Z,9.40
2023-01-30T05:28:09.126Z,14.20
2023-01-30T05:31:05.503Z,15.70
2023-01-30T05:33:57.723Z,17.50
2023-01-30T05:36:49.805Z,17.00
2023-01-30T05:39:41.948Z,14.10
2023-01-30T05:42:17.209Z,14.70
2023-01-30T05:45:11.430Z,18.40
2023-01-30T05:48:03.791Z,16.20
2023-01-30T05:50:57.886Z,16.20
2023-01-30T05:53:50.161Z,15.30
2023-01-30T05:56:42.316Z,15.30
2023-01-30T05:59:34.465Z,14.80
2023-01-30T06:02:26.541Z,11.50
2023-01-30T06:05:19.203Z,14.20
2023-01-30T06:08:11.521Z,12.30
2023-01-30T06:11:05.183Z,15.30
2023-01-30T06:13:57.294Z,17.00
2023-01-30T06:16:49.416Z,16.20
2023-01-30T06:19:41.486Z,15.80
2023-01-30T06:22:33.492Z,15.20
2023-01-30T06:25:25.624Z,17.00
2023-01-30T06:28:18.591Z,14.20
2023-01-30T06:31:11.567Z,19.20
2023-01-30T06:34:03.739Z,13.90
2023-01-30T06:36:55.802Z,14.20
2023-01-30T06:39:47.981Z,14.10
2023-01-30T06:42:40.216Z,13.60
2023-01-30T06:45:32.505Z,14.00
2023-01-30T06:48:24.639Z,15.40
2023-01-30T06:51:16.790Z,15.80
2023-01-30T06:54:08.963Z,14.40
2023-01-30T06:57:01.097Z,20.40
2023-01-30T06:59:53.436Z,13.10
2023-01-30T07:02:45.837Z,14.90
2023-01-30T07:05:39.895Z,14.10
2023-01-30T07:08:32.057Z,17.00
2023-01-30T07:11:24.131Z,17.50
2023-01-30T07:14:07.243Z,16.50
2023-01-30T07:16:59.523Z,14.40
2023-01-30T07:19:51.973Z,17.00
2023-01-30T07:22:44.260Z,17.40
2023-01-30T07:25:36.552Z,15.10
2023-01-30T07:28:28.742Z,22.10
2023-01-30T07:31:20.890Z,18.50
2023-01-30T07:34:12.997Z,18.80
2023-01-30T07:37:05.068Z,18.80
2023-01-30T07:39:57.112Z,18.40
2023-01-30T07:42:58.847Z,15.00
2023-01-30T07:45:51.259Z,20.40
2023-01-30T07:48:45.113Z,19.30
2023-01-30T07:54:27.750Z,16.70
2023-01-30T07:57:20.073Z,22.60
2023-01-30T08:00:16.664Z,16.00
2023-01-30T08:03:12.367Z,15.10
2023-01-30T08:06:04.531Z,12.60
2023-01-30T08:08:56.558Z,12.70
2023-01-30T08:11:48.584Z,13.80
2023-01-30T08:14:40.661Z,15.00
2023-01-30T08:17:32.778Z,16.30
2023-01-30T08:20:25.341Z,19.40
2023-01-30T08:23:17.436Z,19.70
2023-01-30T08:26:09.703Z,16.60
2023-01-30T08:29:01.793Z,23.10
2023-01-30T08:31:57.782Z,18.50
2023-01-30T08:34:49.865Z,18.80
2023-01-30T08:37:43.051Z,17.40
2023-01-30T08:40:35.200Z,15.70
2023-01-30T08:43:10.383Z,20.30
2023-01-30T08:46:02.545Z,16.60
2023-01-30T08:48:54.665Z,20.60
2023-01-30T08:51:46.766Z,20.40
2023-01-30T08:54:38.806Z,20.80
2023-01-30T08:57:32.852Z,17.10
2023-01-30T09:00:25.820Z,17.30
2023-01-30T09:03:18.497Z,19.50
2023-01-30T09:06:10.687Z,19.30
2023-01-30T09:08:53.005Z,15.50
2023-01-30T09:11:33.778Z,18.60
2023-01-30T09:14:25.888Z,14.90
2023-01-30T09:17:18.007Z,20.20
2023-01-30T09:20:12.472Z,13.60
2023-01-30T09:23:05.160Z,13.80
2023-01-30T09:25:57.244Z,18.70
2023-01-30T09:28:49.324Z,20.50
2023-01-30T09:31:41.619Z,16.80
2023-01-30T09:34:33.740Z,17.60
2023-01-30T09:37:25.838Z,16.90
2023-01-30T09:40:18.588Z,18.90
2023-01-30T09:43:22.281Z,19.20
2023-01-30T09:46:24.344Z,17.90
2023-01-30T09:49:29.199Z,17.90
2023-01-30T09:52:32.431Z,18.20
2023-01-30T09:55:28.111Z,18.30
2023-01-30T09:58:22.653Z,17.20
2023-01-30T10:07:12.069Z,17.60
2023-01-30T10:09:56.831Z,16.70
2023-01-30T10:13:02.667Z,12.80
2023-01-30T10:16:01.792Z,13.30
2023-01-30T10:19:02.231Z,21.10
2023-01-30T10:22:02.564Z,17.90
2023-01-30T10:25:04.481Z,16.30
2023-01-30T10:28:00.351Z,14.60
2023-01-30T10:30:56.243Z,20.60
2023-01-30T10:34:08.815Z,18.10
2023-01-30T10:37:08.725Z,19.60
2023-01-30T10:40:06.783Z,18.00
2023-01-30T10:43:04.369Z,17.90
2023-01-30T10:46:03.958Z,17.30
2023-01-30T10:49:02.354Z,18.70
2023-01-30T10:52:03.834Z,16.90
2023-01-30T10:55:04.314Z,19.20
2023-01-30T10:58:02.965Z,18.30
2023-01-30T11:01:01.324Z,19.70
2023-01-30T11:03:58.088Z,21.50
2023-01-30T11:06:50.541Z,17.30
2023-01-30T11:09:45.795Z,19.30
2023-01-30T11:12:38.059Z,14.00
2023-01-30T11:15:41.868Z,16.00
2023-01-30T11:19:18.140Z,14.00
2023-01-30T11:21:51.845Z,18.50
2023-01-30T11:24:45.909Z,19.00
2023-01-30T11:30:34.857Z,21.70
2023-01-30T11:33:35.538Z,19.00
2023-01-30T11:36:31.459Z,20.50
2023-01-30T11:39:29.865Z,17.60
2023-01-30T11:42:25.957Z,19.30
2023-01-30T11:45:20.493Z,20.60
2023-01-30T11:48:33.874Z,18.20
2023-01-30T11:51:34.107Z,14.50
2023-01-30T11:57:22.891Z,11.60
2023-01-30T12:00:21.915Z,17.70
2023-01-30T12:03:17.751Z,19.90
2023-01-30T12:06:30.209Z,20.10
2023-01-30T12:09:35.951Z,19.90
2023-01-30T12:12:34.524Z,22.90
2023-01-30T12:15:28.757Z,20.30
2023-01-30T12:18:25.515Z,18.90
2023-01-30T12:21:02.439Z,19.20
2023-01-30T12:24:02.057Z,16.20
2023-01-30T12:26:58.136Z,18.90
2023-01-30T12:30:00.313Z,14.80
2023-01-30T12:32:54.187Z,17.00
2023-01-30T12:36:03.985Z,11.50
2023-01-30T12:39:17.832Z,17.80
2023-01-30T12:42:28.493Z,16.40
2023-01-30T12:45:20.658Z,14.60
2023-01-30T12:51:34.694Z,19.40
2023-01-30T12:54:40.548Z,21.30
2023-01-30T12:57:41.631Z,16.60
2023-01-30T13:00:45.937Z,17.10
2023-01-30T13:06:53.608Z,17.20
2023-01-30T13:09:58.336Z,17.10
2023-01-30T13:13:00.023Z,13.30
2023-01-30T13:16:01.949Z,15.10
2023-01-30T13:18:58.730Z,11.40
2023-01-30T13:21:57.465Z,13.40
2023-01-30T13:25:00.459Z,18.00
2023-01-30T13:27:57.329Z,16.40
2023-01-30T13:30:53.571Z,19.60
2023-01-30T13:33:47.824Z,16.50
2023-01-30T13:36:44.589Z,16.70
2023-01-30T13:39:42.461Z,16.60
2023-01-30T13:42:38.355Z,18.60
2023-01-30T13:45:34.294Z,17.60
2023-01-30T13:48:44.649Z,19.90
2023-01-30T13:51:46.063Z,13.90
2023-01-30T13:54:51.941Z,13.00
2023-01-30T13:57:54.453Z,13.70
2023-01-30T14:00:56.010Z,14.10
2023-01-30T14:03:48.242Z,11.70
2023-01-30T14:06:41.850Z,17.60
2023-01-30T14:09:34.079Z,19.40
2023-01-30T14:12:18.224Z,20.50
2023-01-30T14:15:31.794Z,19.70
2023-01-30T14:18:27.898Z,24.90
2023-01-30T14:21:24.553Z,17.80
2023-01-30T14:24:25.721Z,21.70
2023-01-30T14:27:24.403Z,20.60
2023-01-30T14:30:49.241Z,16.40
2023-01-30T14:33:52.918Z,17.50
2023-01-30T14:36:50.809Z,18.40
2023-01-30T14:39:55.527Z,16.10
2023-01-30T14:43:24.997Z,19.60
2023-01-30T14:46:54.649Z,23.00
2023-01-30T14:49:50.267Z,22.20
2023-01-30T14:52:44.363Z,18.60
2023-01-30T14:55:36.849Z,19.10
2023-01-30T14:58:29.001Z,18.80
2023-01-30T15:01:21.208Z,15.10
2023-01-30T15:04:19.393Z,13.40
2023-01-30T15:07:15.697Z,15.40
2023-01-30T15:10:14.950Z,13.90
2023-01-30T15:13:24.436Z,16.50
2023-01-30T15:16:34.126Z,15.00
2023-01-30T15:19:40.535Z,19.40
2023-01-30T15:22:48.016Z,17.10
2023-01-30T15:26:12.776Z,20.00
2023-01-30T15:29:43.397Z,14.40
2023-01-30T15:32:36.108Z,16.20
2023-01-30T15:35:30.680Z,12.60
2023-01-30T15:38:30.397Z,13.20
2023-01-30T15:41:22.530Z,13.20
2023-01-30T15:44:39.034Z,14.30
2023-01-30T15:47:47.673Z,15.80
2023-01-30T15:50:40.607Z,18.80
2023-01-30T15:53:17.857Z,21.20
2023-01-30T15:56:17.567Z,18.90
2023-01-30T15:59:21.947Z,20.10
2023-01-30T16:05:16.928Z,18.90
2023-01-30T16:08:24.684Z,18.00
2023-01-30T16:11:32.350Z,15.60
2023-01-30T16:14:24.723Z,14.60
2023-01-30T16:17:18.964Z,18.20
2023-01-30T16:20:16.567Z,18.30
2023-01-30T16:23:26.207Z,21.20
2023-01-30T16:26:21.826Z,24.40
2023-01-30T16:29:18.963Z,20.50
2023-01-30T16:32:16.197Z,21.00
2023-01-30T16:35:32.115Z,22.80
2023-01-30T16:38:41.008Z,21.00
2023-01-30T16:41:35.435Z,22.60
2023-01-30T16:44:28.805Z,19.10
2023-01-30T16:47:06.048Z,18.00
2023-01-30T16:49:58.777Z,19.40
2023-01-30T16:52:55.755Z,16.10
2023-01-30T16:55:58.134Z,15.80
2023-01-30T16:58:55.240Z,17.00
2023-01-30T17:01:47.785Z,22.80
2023-01-30T17:04:43.401Z,21.20
2023-01-30T17:07:38.407Z,19.60
2023-01-30T17:10:58.515Z,28.10
2023-01-30T17:13:50.644Z,24.90
2023-01-30T17:16:43.306Z,23.70
2023-01-30T17:19:36.367Z,22.60
2023-01-30T17:22:24.300Z,23.20
2023-01-30T17:25:26.927Z,20.50
2023-01-30T17:28:24.362Z,19.60
2023-01-30T17:31:18.149Z,17.90
2023-01-30T17:34:12.262Z,18.40
2023-01-30T17:39:54.979Z,19.90
2023-01-30T17:42:32.204Z,24.70
2023-01-30T17:45:24.406Z,24.90
2023-01-30T17:48:16.724Z,22.20
2023-01-30T17:51:09.006Z,25.00
2023-01-30T17:54:01.127Z,21.30
2023-01-30T17:56:56.596Z,23.10
2023-01-30T17:59:48.833Z,26.60
2023-01-30T18:02:41.003Z,20.10
2023-01-30T18:05:33.267Z,21.90
2023-01-30T18:08:25.382Z,17.50
2023-01-30T18:11:17.567Z,20.70
2023-01-30T18:14:09.823Z,15.20
2023-01-30T18:17:02.280Z,20.90
2023-01-30T18:19:55.076Z,24.60
2023-01-30T18:22:47.525Z,20.20
2023-01-30T18:25:39.622Z,26.30
2023-01-30T18:28:32.179Z,22.90
2023-01-30T18:31:25.472Z,23.60
2023-01-30T18:34:17.871Z,21.30
2023-01-30T18:37:10.148Z,24.90
2023-01-30T18:40:02.232Z,24.40
2023-01-30T18:42:54.399Z,20.00
2023-01-30T18:45:47.006Z,18.80
2023-01-30T18:48:39.353Z,18.20
2023-01-30T18:51:34.066Z,17.10
2023-01-30T18:54:26.401Z,15.90
2023-01-30T18:57:18.487Z,16.70
2023-01-30T19:00:12.953Z,23.00
2023-01-30T19:03:05.215Z,21.70
2023-01-30T19:05:57.487Z,19.60
2023-01-30T19:08:49.619Z,23.30
2023-01-30T19:11:59.604Z,24.40
2023-01-30T19:14:51.793Z,19.50
2023-01-30T19:17:43.988Z,17.10
2023-01-30T19:20:36.350Z,20.80
2023-01-30T19:23:30.423Z,18.10
2023-01-30T19:26:23.842Z,17.00
2023-01-30T19:29:16.164Z,16.30
2023-01-30T19:32:09.455Z,14.20
2023-01-30T19:35:01.710Z,17.40
2023-01-30T19:37:57.558Z,19.00
2023-01-30T19:40:49.940Z,23.40
2023-01-30T19:43:42.661Z,22.50
2023-01-30T19:46:35.460Z,23.70
2023-01-30T19:49:27.780Z,21.10
2023-01-30T19:52:19.898Z,21.50
2023-01-30T19:55:12.322Z,19.60
2023-01-30T19:58:04.914Z,24.00
2023-01-30T20:01:05.332Z,15.90
2023-01-30T20:03:58.865Z,16.50
2023-01-30T20:06:51.140Z,16.20
2023-01-30T20:09:43.298Z,15.80
2023-01-30T20:12:36.004Z,16.30
2023-01-30T20:15:28.109Z,17.80
2023-01-30T20:18:20.205Z,20.40
2023-01-30T20:21:15.822Z,24.20
2023-01-30T20:24:09.184Z,24.40
2023-01-30T20:27:01.440Z,22.80
2023-01-30T20:29:53.650Z,21.10
2023-01-30T20:32:46.266Z,21.30
2023-01-30T20:35:38.551Z,12.50
2023-01-30T20:38:32.739Z,14.00
2023-01-30T20:44:18.174Z,9.10
2023-01-30T20:46:56.619Z,10.40
2023-01-30T20:49:48.966Z,7.50
2023-01-30T20:52:42.543Z,7.40
2023-01-30T20:55:36.384Z,6.00
2023-01-30T20:58:29.372Z,6.20
2023-01-30T21:01:24.250Z,6.70
2023-01-30T21:04:17.985Z,5.80
2023-01-30T21:07:10.440Z,5.50
2023-01-30T21:10:02.810Z,5.90
2023-01-30T21:12:55.026Z,6.40
2023-01-30T21:15:47.335Z,5.10
2023-01-30T21:18:42.187Z,9.10
2023-01-30T21:21:36.025Z,12.20
2023-01-30T21:24:29.652Z,7.30
2023-01-30T21:27:22.024Z,6.60
2023-01-30T21:30:17.050Z,7.40
2023-01-30T21:33:09.164Z,6.20
2023-01-30T21:36:02.710Z,6.10
2023-01-30T21:39:12.605Z,7.50
2023-01-30T21:42:22.336Z,5.90
2023-01-30T21:45:16.066Z,8.50
2023-01-30T21:48:08.943Z,8.00
2023-01-30T21:51:22.770Z,8.80
2023-01-30T21:54:14.991Z,10.60
2023-01-30T21:57:07.142Z,9.70
2023-01-30T21:59:59.418Z,9.50
2023-01-30T22:02:53.009Z,9.00
2023-01-30T22:05:47.514Z,7.90
2023-01-30T22:08:40.210Z,13.50
2023-01-30T22:11:32.802Z,13.80
2023-01-30T22:14:25.122Z,9.90
2023-01-30T22:17:17.370Z,16.00
2023-01-30T22:20:11.901Z,10.20
2023-01-30T22:23:03.996Z,11.30
2023-01-30T22:25:57.702Z,10.40
2023-01-30T22:28:54.274Z,11.70
2023-01-30T22:31:46.781Z,10.00
2023-01-30T22:34:39.342Z,13.00
2023-01-30T22:37:31.618Z,11.90
2023-01-30T22:40:23.688Z,9.30
2023-01-30T22:43:15.808Z,6.40
2023-01-30T22:46:09.700Z,12.70
2023-01-30T22:49:02.661Z,7.60
2023-01-30T22:51:54.976Z,7.20
2023-01-30T22:54:47.311Z,9.70
2023-01-30T22:57:39.393Z,7.20
2023-01-30T23:00:31.696Z,6.90
2023-01-30T23:03:24.007Z,11.10
2023-01-30T23:06:18.120Z,13.40
2023-01-30T23:12:19.107Z,12.50
2023-01-30T23:15:12.609Z,10.10
2023-01-30T23:18:22.457Z,8.00
2023-01-30T23:21:15.746Z,12.30
2023-01-30T23:24:11.841Z,8.80
2023-01-30T23:27:04.067Z,8.70
2023-01-30T23:29:56.139Z,8.60
2023-01-30T23:32:48.080Z,4.80
2023-01-30T23:35:40.312Z,5.10
2023-01-30T23:38:33.051Z,11.90
2023-01-30T23:41:27.385Z,6.40
2023-01-30T23:44:19.522Z,5.20
2023-01-30T23:47:11.651Z,9.00
2023-01-30T23:50:03.791Z,20.80
2023-01-30T23:52:55.995Z,6.60
2023-01-30T23:55:54.151Z,4.80
2023-01-30T23:58:46.908Z,7.10
